sensor_id;sensor_type;location;lat;lon;timestamp;temperature;humidity
40255;DHT22;25973;52.368;4.940;2022-10-31T00:01:29;14.20;99.90
40255;DHT22;25973;52.368;4.940;2022-10-31T00:03:55;14.20;99.90
40255;DHT22;25973;52.368;4.940;2022-10-31T00:06:21;14.10;99.90
40255;DHT22;25973;52.368;4.940;2022-10-31T00:08:53;14.10;99.90
40255;DHT22;25973;52.368;4.940;2022-10-31T00:11:19;14.10;99.90
40255;DHT22;25973;52.368;4.940;2022-10-31T00:13:44;14.10;99.90
40255;DHT22;25973;52.368;4.940;2022-10-31T00:16:17;14.10;99.90
40255;DHT22;25973;52.368;4.940;2022-10-31T00:18:44;14.00;99.90
40255;DHT22;25973;52.368;4.940;2022-10-31T00:21:09;14.00;99.90
40255;DHT22;25973;52.368;4.940;2022-10-31T00:23:35;14.00;99.90
40255;DHT22;25973;52.368;4.940;2022-10-31T00:26:04;14.00;99.90
40255;DHT22;25973;52.368;4.940;2022-10-31T00:28:30;14.00;99.90
40255;DHT22;25973;52.368;4.940;2022-10-31T00:31:01;14.00;99.90
40255;DHT22;25973;52.368;4.940;2022-10-31T00:33:27;14.00;99.90
40255;DHT22;25973;52.368;4.940;2022-10-31T00:35:53;14.00;99.90
40255;DHT22;25973;52.368;4.940;2022-10-31T00:38:18;14.00;99.90
40255;DHT22;25973;52.368;4.940;2022-10-31T00:40:44;14.00;99.90
40255;DHT22;25973;52.368;4.940;2022-10-31T00:43:09;14.00;99.90
40255;DHT22;25973;52.368;4.940;2022-10-31T00:45:35;14.00;99.90
40255;DHT22;25973;52.368;4.940;2022-10-31T00:48:00;14.10;99.90
40255;DHT22;25973;52.368;4.940;2022-10-31T00:50:26;14.00;99.90
40255;DHT22;25973;52.368;4.940;2022-10-31T00:52:52;14.00;99.90
40255;DHT22;25973;52.368;4.940;2022-10-31T00:55:17;14.00;99.90
40255;DHT22;25973;52.368;4.940;2022-10-31T00:57:46;14.00;99.90
40255;DHT22;25973;52.368;4.940;2022-10-31T01:00:12;14.00;99.90
40255;DHT22;25973;52.368;4.940;2022-10-31T01:02:37;13.90;99.90
40255;DHT22;25973;52.368;4.940;2022-10-31T01:05:06;13.90;99.90
40255;DHT22;25973;52.368;4.940;2022-10-31T01:07:34;13.90;99.90
40255;DHT22;25973;52.368;4.940;2022-10-31T01:10:00;13.90;99.90
40255;DHT22;25973;52.368;4.940;2022-10-31T01:12:26;13.90;99.90
40255;DHT22;25973;52.368;4.940;2022-10-31T01:14:51;13.90;99.90
40255;DHT22;25973;52.368;4.940;2022-10-31T01:17:17;13.90;99.90
40255;DHT22;25973;52.368;4.940;2022-10-31T01:19:42;13.90;99.90
40255;DHT22;25973;52.368;4.940;2022-10-31T01:22:08;13.90;99.90
40255;DHT22;25973;52.368;4.940;2022-10-31T01:24:33;13.90;99.90
40255;DHT22;25973;52.368;4.940;2022-10-31T01:26:59;13.80;99.90
40255;DHT22;25973;52.368;4.940;2022-10-31T01:29:24;13.90;99.90
40255;DHT22;25973;52.368;4.940;2022-10-31T01:31:50;13.80;99.90
40255;DHT22;25973;52.368;4.940;2022-10-31T01:34:16;13.80;99.90
40255;DHT22;25973;52.368;4.940;2022-10-31T01:36:43;13.80;99.90
40255;DHT22;25973;52.368;4.940;2022-10-31T01:39:14;13.80;99.90
40255;DHT22;25973;52.368;4.940;2022-10-31T01:41:42;13.80;99.90
40255;DHT22;25973;52.368;4.940;2022-10-31T01:46:58;13.70;99.90
40255;DHT22;25973;52.368;4.940;2022-10-31T01:49:46;13.70;99.90
40255;DHT22;25973;52.368;4.940;2022-10-31T01:52:21;13.70;99.90
40255;DHT22;25973;52.368;4.940;2022-10-31T01:55:05;13.70;99.90
40255;DHT22;25973;52.368;4.940;2022-10-31T01:57:32;13.70;99.90
40255;DHT22;25973;52.368;4.940;2022-10-31T02:00:03;13.60;99.90
40255;DHT22;25973;52.368;4.940;2022-10-31T02:02:29;13.60;99.90
40255;DHT22;25973;52.368;4.940;2022-10-31T02:04:56;13.50;99.90
40255;DHT22;25973;52.368;4.940;2022-10-31T02:07:27;13.50;99.90
40255;DHT22;25973;52.368;4.940;2022-10-31T02:09:57;13.50;99.90
40255;DHT22;25973;52.368;4.940;2022-10-31T02:12:22;13.40;99.90
40255;DHT22;25973;52.368;4.940;2022-10-31T02:14:49;13.40;99.90
40255;DHT22;25973;52.368;4.940;2022-10-31T02:17:15;13.30;99.90
40255;DHT22;25973;52.368;4.940;2022-10-31T02:20:01;13.30;99.90
40255;DHT22;25973;52.368;4.940;2022-10-31T02:31:20;13.30;99.90
40255;DHT22;25973;52.368;4.940;2022-10-31T02:34:05;13.30;99.90
40255;DHT22;25973;52.368;4.940;2022-10-31T02:36:43;13.30;99.90
40255;DHT22;25973;52.368;4.940;2022-10-31T02:39:26;13.30;99.90
40255;DHT22;25973;52.368;4.940;2022-10-31T02:42:04;13.30;99.90
40255;DHT22;25973;52.368;4.940;2022-10-31T02:44:39;13.30;99.90
40255;DHT22;25973;52.368;4.940;2022-10-31T02:47:34;13.30;99.90
40255;DHT22;25973;52.368;4.940;2022-10-31T02:50:13;13.30;99.90
40255;DHT22;25973;52.368;4.940;2022-10-31T02:52:39;13.30;99.90
40255;DHT22;25973;52.368;4.940;2022-10-31T02:57:56;13.30;99.90
40255;DHT22;25973;52.368;4.940;2022-10-31T03:00:23;13.20;99.90
40255;DHT22;25973;52.368;4.940;2022-10-31T03:03:09;13.30;99.90
40255;DHT22;25973;52.368;4.940;2022-10-31T03:11:15;13.20;99.90
40255;DHT22;25973;52.368;4.940;2022-10-31T03:14:01;13.20;99.90
40255;DHT22;25973;52.368;4.940;2022-10-31T03:16:43;13.30;99.90
40255;DHT22;25973;52.368;4.940;2022-10-31T03:19:12;13.20;99.90
40255;DHT22;25973;52.368;4.940;2022-10-31T03:22:01;13.20;99.90
40255;DHT22;25973;52.368;4.940;2022-10-31T03:24:32;13.20;99.90
40255;DHT22;25973;52.368;4.940;2022-10-31T03:26:59;13.20;99.90
40255;DHT22;25973;52.368;4.940;2022-10-31T03:29:28;13.10;99.90
40255;DHT22;25973;52.368;4.940;2022-10-31T03:31:59;13.10;99.90
40255;DHT22;25973;52.368;4.940;2022-10-31T03:34:27;13.10;99.90
40255;DHT22;25973;52.368;4.940;2022-10-31T03:36:56;13.10;99.90
40255;DHT22;25973;52.368;4.940;2022-10-31T03:39:23;13.10;99.90
40255;DHT22;25973;52.368;4.940;2022-10-31T03:42:15;13.10;99.90
40255;DHT22;25973;52.368;4.940;2022-10-31T03:44:42;13.10;99.90
40255;DHT22;25973;52.368;4.940;2022-10-31T03:47:12;13.10;99.90
40255;DHT22;25973;52.368;4.940;2022-10-31T03:49:38;13.10;99.90
40255;DHT22;25973;52.368;4.940;2022-10-31T03:52:28;13.10;99.90
40255;DHT22;25973;52.368;4.940;2022-10-31T03:54:59;13.10;99.90
40255;DHT22;25973;52.368;4.940;2022-10-31T03:57:38;13.10;99.90
40255;DHT22;25973;52.368;4.940;2022-10-31T04:00:08;13.10;99.90
40255;DHT22;25973;52.368;4.940;2022-10-31T04:02:38;13.10;99.90
40255;DHT22;25973;52.368;4.940;2022-10-31T04:05:06;13.10;99.90
40255;DHT22;25973;52.368;4.940;2022-10-31T04:07:39;13.00;99.90
40255;DHT22;25973;52.368;4.940;2022-10-31T04:10:09;13.10;99.90
40255;DHT22;25973;52.368;4.940;2022-10-31T04:12:36;13.10;99.90
40255;DHT22;25973;52.368;4.940;2022-10-31T04:15:04;13.00;99.90
40255;DHT22;25973;52.368;4.940;2022-10-31T04:17:34;13.00;99.90
40255;DHT22;25973;52.368;4.940;2022-10-31T04:20:01;13.00;99.90
40255;DHT22;25973;52.368;4.940;2022-10-31T04:22:27;13.00;99.90
40255;DHT22;25973;52.368;4.940;2022-10-31T04:24:53;13.00;99.90
40255;DHT22;25973;52.368;4.940;2022-10-31T04:27:18;13.00;99.90
40255;DHT22;25973;52.368;4.940;2022-10-31T04:29:44;13.00;99.90
40255;DHT22;25973;52.368;4.940;2022-10-31T04:32:10;13.00;99.90
40255;DHT22;25973;52.368;4.940;2022-10-31T04:34:35;12.90;99.90
40255;DHT22;25973;52.368;4.940;2022-10-31T04:37:01;12.90;99.90
40255;DHT22;25973;52.368;4.940;2022-10-31T04:39:26;12.90;99.90
40255;DHT22;25973;52.368;4.940;2022-10-31T04:41:52;12.90;99.90
40255;DHT22;25973;52.368;4.940;2022-10-31T04:44:17;12.90;99.90
40255;DHT22;25973;52.368;4.940;2022-10-31T04:46:43;13.00;99.90
40255;DHT22;25973;52.368;4.940;2022-10-31T04:49:08;13.00;99.90
40255;DHT22;25973;52.368;4.940;2022-10-31T04:51:37;13.00;99.90
40255;DHT22;25973;52.368;4.940;2022-10-31T04:54:03;13.00;99.90
40255;DHT22;25973;52.368;4.940;2022-10-31T04:56:28;13.00;99.90
40255;DHT22;25973;52.368;4.940;2022-10-31T04:58:54;12.90;99.90
40255;DHT22;25973;52.368;4.940;2022-10-31T05:01:20;13.00;99.90
40255;DHT22;25973;52.368;4.940;2022-10-31T05:03:45;13.00;99.90
40255;DHT22;25973;52.368;4.940;2022-10-31T05:06:11;12.90;99.90
40255;DHT22;25973;52.368;4.940;2022-10-31T05:08:36;13.00;99.90
40255;DHT22;25973;52.368;4.940;2022-10-31T05:11:03;13.00;99.90
40255;DHT22;25973;52.368;4.940;2022-10-31T05:13:29;13.00;99.90
40255;DHT22;25973;52.368;4.940;2022-10-31T05:15:54;12.90;99.90
40255;DHT22;25973;52.368;4.940;2022-10-31T05:18:20;12.90;99.90
40255;DHT22;25973;52.368;4.940;2022-10-31T05:20:46;12.90;99.90
40255;DHT22;25973;52.368;4.940;2022-10-31T05:23:12;12.90;99.90
40255;DHT22;25973;52.368;4.940;2022-10-31T05:25:39;12.90;99.90
40255;DHT22;25973;52.368;4.940;2022-10-31T05:28:08;12.80;99.90
40255;DHT22;25973;52.368;4.940;2022-10-31T05:30:34;12.80;99.90
40255;DHT22;25973;52.368;4.940;2022-10-31T05:33:00;12.80;99.90
40255;DHT22;25973;52.368;4.940;2022-10-31T05:35:30;12.80;99.90
40255;DHT22;25973;52.368;4.940;2022-10-31T05:37:56;12.70;99.90
40255;DHT22;25973;52.368;4.940;2022-10-31T05:40:23;12.70;99.90
40255;DHT22;25973;52.368;4.940;2022-10-31T05:42:51;12.70;99.90
40255;DHT22;25973;52.368;4.940;2022-10-31T05:45:18;12.70;99.90
40255;DHT22;25973;52.368;4.940;2022-10-31T05:47:55;12.70;99.90
40255;DHT22;25973;52.368;4.940;2022-10-31T05:50:22;12.70;99.90
40255;DHT22;25973;52.368;4.940;2022-10-31T05:52:53;12.60;99.90
40255;DHT22;25973;52.368;4.940;2022-10-31T05:55:19;12.60;99.90
40255;DHT22;25973;52.368;4.940;2022-10-31T05:57:44;12.60;99.90
40255;DHT22;25973;52.368;4.940;2022-10-31T06:00:10;12.60;99.90
40255;DHT22;25973;52.368;4.940;2022-10-31T06:02:36;12.60;99.90
40255;DHT22;25973;52.368;4.940;2022-10-31T06:05:02;12.60;99.90
40255;DHT22;25973;52.368;4.940;2022-10-31T06:07:32;12.50;99.90
40255;DHT22;25973;52.368;4.940;2022-10-31T06:09:58;12.50;99.90
40255;DHT22;25973;52.368;4.940;2022-10-31T06:12:23;12.50;99.90
40255;DHT22;25973;52.368;4.940;2022-10-31T06:14:49;12.40;99.90
40255;DHT22;25973;52.368;4.940;2022-10-31T06:17:15;12.40;99.90
40255;DHT22;25973;52.368;4.940;2022-10-31T06:19:40;12.40;99.90
40255;DHT22;25973;52.368;4.940;2022-10-31T06:22:06;12.40;99.90
40255;DHT22;25973;52.368;4.940;2022-10-31T06:24:31;12.40;99.90
40255;DHT22;25973;52.368;4.940;2022-10-31T06:26:57;12.40;99.90
40255;DHT22;25973;52.368;4.940;2022-10-31T06:29:22;12.40;99.90
40255;DHT22;25973;52.368;4.940;2022-10-31T06:31:51;12.40;99.90
40255;DHT22;25973;52.368;4.940;2022-10-31T06:34:16;12.40;99.90
40255;DHT22;25973;52.368;4.940;2022-10-31T06:36:42;12.40;99.90
40255;DHT22;25973;52.368;4.940;2022-10-31T06:39:07;12.40;99.90
40255;DHT22;25973;52.368;4.940;2022-10-31T06:41:33;12.50;99.90
40255;DHT22;25973;52.368;4.940;2022-10-31T06:43:58;12.50;99.90
40255;DHT22;25973;52.368;4.940;2022-10-31T06:46:24;12.50;99.90
40255;DHT22;25973;52.368;4.940;2022-10-31T06:48:49;12.50;99.90
40255;DHT22;25973;52.368;4.940;2022-10-31T06:51:15;12.50;99.90
40255;DHT22;25973;52.368;4.940;2022-10-31T06:53:41;12.40;99.90
40255;DHT22;25973;52.368;4.940;2022-10-31T06:56:06;12.50;99.90
40255;DHT22;25973;52.368;4.940;2022-10-31T06:58:32;12.50;99.90
40255;DHT22;25973;52.368;4.940;2022-10-31T07:01:01;12.40;99.90
40255;DHT22;25973;52.368;4.940;2022-10-31T07:03:26;12.40;99.90
40255;DHT22;25973;52.368;4.940;2022-10-31T07:05:54;12.40;99.90
40255;DHT22;25973;52.368;4.940;2022-10-31T07:08:19;12.40;99.90
40255;DHT22;25973;52.368;4.940;2022-10-31T07:10:54;12.40;99.90
40255;DHT22;25973;52.368;4.940;2022-10-31T07:13:21;12.40;99.90
40255;DHT22;25973;52.368;4.940;2022-10-31T07:15:51;12.40;99.90
40255;DHT22;25973;52.368;4.940;2022-10-31T07:18:17;12.50;99.90
40255;DHT22;25973;52.368;4.940;2022-10-31T07:20:43;12.50;99.90
40255;DHT22;25973;52.368;4.940;2022-10-31T07:23:11;12.50;99.90
40255;DHT22;25973;52.368;4.940;2022-10-31T07:25:40;12.60;99.90
40255;DHT22;25973;52.368;4.940;2022-10-31T07:28:07;12.60;99.90
40255;DHT22;25973;52.368;4.940;2022-10-31T07:30:33;12.60;99.90
40255;DHT22;25973;52.368;4.940;2022-10-31T07:32:58;12.60;99.90
40255;DHT22;25973;52.368;4.940;2022-10-31T07:35:26;12.60;99.90
40255;DHT22;25973;52.368;4.940;2022-10-31T07:37:52;12.70;99.90
40255;DHT22;25973;52.368;4.940;2022-10-31T07:40:18;12.70;99.90
40255;DHT22;25973;52.368;4.940;2022-10-31T07:42:46;12.80;99.90
40255;DHT22;25973;52.368;4.940;2022-10-31T07:45:18;12.80;99.90
40255;DHT22;25973;52.368;4.940;2022-10-31T07:47:46;12.90;99.90
40255;DHT22;25973;52.368;4.940;2022-10-31T07:50:16;13.00;99.90
40255;DHT22;25973;52.368;4.940;2022-10-31T07:52:42;13.10;99.90
40255;DHT22;25973;52.368;4.940;2022-10-31T07:55:08;13.20;99.90
40255;DHT22;25973;52.368;4.940;2022-10-31T07:57:34;13.30;99.90
40255;DHT22;25973;52.368;4.940;2022-10-31T08:00:00;13.40;99.90
40255;DHT22;25973;52.368;4.940;2022-10-31T08:02:26;13.50;99.90
40255;DHT22;25973;52.368;4.940;2022-10-31T08:04:52;13.60;99.90
40255;DHT22;25973;52.368;4.940;2022-10-31T08:07:18;13.60;99.90
40255;DHT22;25973;52.368;4.940;2022-10-31T08:09:43;13.70;99.90
40255;DHT22;25973;52.368;4.940;2022-10-31T08:12:12;13.80;99.90
40255;DHT22;25973;52.368;4.940;2022-10-31T08:14:37;13.80;99.90
40255;DHT22;25973;52.368;4.940;2022-10-31T08:17:03;13.90;99.90
40255;DHT22;25973;52.368;4.940;2022-10-31T08:19:28;13.90;99.90
40255;DHT22;25973;52.368;4.940;2022-10-31T08:21:54;14.00;99.90
40255;DHT22;25973;52.368;4.940;2022-10-31T08:24:21;14.00;99.90
40255;DHT22;25973;52.368;4.940;2022-10-31T08:26:53;14.00;99.90
40255;DHT22;25973;52.368;4.940;2022-10-31T08:29:18;14.00;99.90
40255;DHT22;25973;52.368;4.940;2022-10-31T08:31:44;14.00;99.90
40255;DHT22;25973;52.368;4.940;2022-10-31T08:34:09;14.00;99.90
40255;DHT22;25973;52.368;4.940;2022-10-31T08:36:35;14.20;99.90
40255;DHT22;25973;52.368;4.940;2022-10-31T08:39:01;14.20;99.90
40255;DHT22;25973;52.368;4.940;2022-10-31T08:41:27;14.30;99.90
40255;DHT22;25973;52.368;4.940;2022-10-31T08:43:52;14.50;99.90
40255;DHT22;25973;52.368;4.940;2022-10-31T08:46:18;14.60;99.90
40255;DHT22;25973;52.368;4.940;2022-10-31T08:48:43;14.80;99.90
40255;DHT22;25973;52.368;4.940;2022-10-31T08:51:10;14.90;99.90
40255;DHT22;25973;52.368;4.940;2022-10-31T08:53:36;15.00;99.90
40255;DHT22;25973;52.368;4.940;2022-10-31T08:56:02;15.10;99.90
40255;DHT22;25973;52.368;4.940;2022-10-31T08:58:27;15.20;99.90
40255;DHT22;25973;52.368;4.940;2022-10-31T09:00:54;15.40;99.90
40255;DHT22;25973;52.368;4.940;2022-10-31T09:03:23;15.60;99.90
40255;DHT22;25973;52.368;4.940;2022-10-31T09:05:50;15.80;99.90
40255;DHT22;25973;52.368;4.940;2022-10-31T09:08:17;16.00;99.90
40255;DHT22;25973;52.368;4.940;2022-10-31T09:10:43;16.20;99.90
40255;DHT22;25973;52.368;4.940;2022-10-31T09:13:11;16.30;99.90
40255;DHT22;25973;52.368;4.940;2022-10-31T09:15:39;16.30;99.90
40255;DHT22;25973;52.368;4.940;2022-10-31T09:18:06;16.20;99.90
40255;DHT22;25973;52.368;4.940;2022-10-31T09:20:33;16.10;99.90
40255;DHT22;25973;52.368;4.940;2022-10-31T09:23:03;16.00;99.90
40255;DHT22;25973;52.368;4.940;2022-10-31T09:25:30;16.00;99.90
40255;DHT22;25973;52.368;4.940;2022-10-31T09:27:59;16.10;99.90
40255;DHT22;25973;52.368;4.940;2022-10-31T09:30:26;16.30;99.90
40255;DHT22;25973;52.368;4.940;2022-10-31T09:32:56;16.50;99.90
40255;DHT22;25973;52.368;4.940;2022-10-31T09:35:22;16.70;99.90
40255;DHT22;25973;52.368;4.940;2022-10-31T09:38:03;17.00;99.90
40255;DHT22;25973;52.368;4.940;2022-10-31T09:40:43;17.20;99.90
40255;DHT22;25973;52.368;4.940;2022-10-31T09:43:41;17.50;99.90
40255;DHT22;25973;52.368;4.940;2022-10-31T09:46:47;17.70;99.90
40255;DHT22;25973;52.368;4.940;2022-10-31T09:52:02;17.90;99.90
40255;DHT22;25973;52.368;4.940;2022-10-31T09:54:41;17.90;99.90
40255;DHT22;25973;52.368;4.940;2022-10-31T09:57:14;17.80;99.90
40255;DHT22;25973;52.368;4.940;2022-10-31T09:59:41;17.70;99.90
40255;DHT22;25973;52.368;4.940;2022-10-31T10:02:36;18.00;99.90
40255;DHT22;25973;52.368;4.940;2022-10-31T10:05:14;18.80;99.90
40255;DHT22;25973;52.368;4.940;2022-10-31T10:13:32;19.90;99.90
40255;DHT22;25973;52.368;4.940;2022-10-31T10:19:15;18.70;99.90
40255;DHT22;25973;52.368;4.940;2022-10-31T10:22:12;18.40;99.90
40255;DHT22;25973;52.368;4.940;2022-10-31T10:30:13;17.90;99.90
40255;DHT22;25973;52.368;4.940;2022-10-31T10:32:59;17.60;99.90
40255;DHT22;25973;52.368;4.940;2022-10-31T10:35:35;17.30;99.90
40255;DHT22;25973;52.368;4.940;2022-10-31T10:40:33;16.80;99.90
40255;DHT22;25973;52.368;4.940;2022-10-31T10:45:49;16.60;99.90
40255;DHT22;25973;52.368;4.940;2022-10-31T10:48:47;16.50;99.90
40255;DHT22;25973;52.368;4.940;2022-10-31T10:51:23;16.50;99.90
40255;DHT22;25973;52.368;4.940;2022-10-31T10:57:10;16.50;99.90
40255;DHT22;25973;52.368;4.940;2022-10-31T10:59:37;16.50;99.90
40255;DHT22;25973;52.368;4.940;2022-10-31T11:02:03;16.60;99.90
40255;DHT22;25973;52.368;4.940;2022-10-31T11:04:40;16.60;99.90
40255;DHT22;25973;52.368;4.940;2022-10-31T11:07:10;16.60;99.90
40255;DHT22;25973;52.368;4.940;2022-10-31T11:09:36;16.70;99.90
40255;DHT22;25973;52.368;4.940;2022-10-31T11:12:30;16.70;99.90
40255;DHT22;25973;52.368;4.940;2022-10-31T11:15:07;16.70;99.90
40255;DHT22;25973;52.368;4.940;2022-10-31T11:17:38;16.70;99.90
40255;DHT22;25973;52.368;4.940;2022-10-31T11:22:38;16.90;99.90
40255;DHT22;25973;52.368;4.940;2022-10-31T11:25:21;16.90;99.90
40255;DHT22;25973;52.368;4.940;2022-10-31T11:27:47;16.90;99.90
40255;DHT22;25973;52.368;4.940;2022-10-31T11:30:14;16.90;99.90
40255;DHT22;25973;52.368;4.940;2022-10-31T11:32:47;16.90;99.90
40255;DHT22;25973;52.368;4.940;2022-10-31T11:35:17;16.80;99.90
40255;DHT22;25973;52.368;4.940;2022-10-31T11:37:45;16.90;99.90
40255;DHT22;25973;52.368;4.940;2022-10-31T11:40:26;16.90;99.90
40255;DHT22;25973;52.368;4.940;2022-10-31T11:42:53;16.90;99.90
40255;DHT22;25973;52.368;4.940;2022-10-31T11:47:50;16.90;99.90
40255;DHT22;25973;52.368;4.940;2022-10-31T11:50:21;16.90;99.90
40255;DHT22;25973;52.368;4.940;2022-10-31T11:52:48;16.90;99.90
40255;DHT22;25973;52.368;4.940;2022-10-31T11:55:17;17.00;99.90
40255;DHT22;25973;52.368;4.940;2022-10-31T11:57:55;17.10;99.90
40255;DHT22;25973;52.368;4.940;2022-10-31T12:02:50;17.20;99.90
40255;DHT22;25973;52.368;4.940;2022-10-31T12:05:22;17.30;99.90
40255;DHT22;25973;52.368;4.940;2022-10-31T12:07:51;17.30;99.90
40255;DHT22;25973;52.368;4.940;2022-10-31T12:10:21;17.40;99.90
40255;DHT22;25973;52.368;4.940;2022-10-31T12:26:14;17.30;99.90
40255;DHT22;25973;52.368;4.940;2022-10-31T12:36:44;17.20;99.90
40255;DHT22;25973;52.368;4.940;2022-10-31T12:39:29;17.20;99.90
40255;DHT22;25973;52.368;4.940;2022-10-31T12:45:07;17.20;99.90
40255;DHT22;25973;52.368;4.940;2022-10-31T12:48:14;17.20;99.90
40255;DHT22;25973;52.368;4.940;2022-10-31T12:51:05;17.20;99.90
40255;DHT22;25973;52.368;4.940;2022-10-31T12:59:45;17.40;99.90
40255;DHT22;25973;52.368;4.940;2022-10-31T13:02:39;17.40;99.90
40255;DHT22;25973;52.368;4.940;2022-10-31T13:10:34;17.50;99.90
40255;DHT22;25973;52.368;4.940;2022-10-31T13:13:25;17.50;99.90
40255;DHT22;25973;52.368;4.940;2022-10-31T13:15:57;17.50;99.90
40255;DHT22;25973;52.368;4.940;2022-10-31T13:18:38;17.40;99.90
40255;DHT22;25973;52.368;4.940;2022-10-31T13:21:11;17.30;99.90
40255;DHT22;25973;52.368;4.940;2022-10-31T13:23:39;17.20;99.90
40255;DHT22;25973;52.368;4.940;2022-10-31T13:28:57;17.20;99.90
40255;DHT22;25973;52.368;4.940;2022-10-31T13:31:25;17.10;99.90
40255;DHT22;25973;52.368;4.940;2022-10-31T13:36:46;16.90;99.90
40255;DHT22;25973;52.368;4.940;2022-10-31T13:44:28;16.80;99.90
40255;DHT22;25973;52.368;4.940;2022-10-31T13:46:56;16.70;99.90
40255;DHT22;25973;52.368;4.940;2022-10-31T13:54:36;16.60;99.90
40255;DHT22;25973;52.368;4.940;2022-10-31T13:57:06;16.50;99.90
40255;DHT22;25973;52.368;4.940;2022-10-31T13:59:36;16.40;99.90
40255;DHT22;25973;52.368;4.940;2022-10-31T14:02:14;16.30;99.90
40255;DHT22;25973;52.368;4.940;2022-10-31T14:04:59;16.20;99.90
40255;DHT22;25973;52.368;4.940;2022-10-31T14:07:26;16.20;99.90
40255;DHT22;25973;52.368;4.940;2022-10-31T14:12:48;16.20;99.90
40255;DHT22;25973;52.368;4.940;2022-10-31T14:15:18;16.10;99.90
40255;DHT22;25973;52.368;4.940;2022-10-31T14:17:51;16.10;99.90
40255;DHT22;25973;52.368;4.940;2022-10-31T14:28:46;16.20;99.90
40255;DHT22;25973;52.368;4.940;2022-10-31T14:31:36;16.20;99.90
40255;DHT22;25973;52.368;4.940;2022-10-31T14:34:24;16.20;99.90
40255;DHT22;25973;52.368;4.940;2022-10-31T14:50:59;16.20;99.90
40255;DHT22;25973;52.368;4.940;2022-10-31T14:53:34;16.20;99.90
40255;DHT22;25973;52.368;4.940;2022-10-31T14:56:01;16.20;99.90
40255;DHT22;25973;52.368;4.940;2022-10-31T15:01:06;16.30;99.90
40255;DHT22;25973;52.368;4.940;2022-10-31T15:03:44;16.30;99.90
40255;DHT22;25973;52.368;4.940;2022-10-31T15:06:16;16.30;99.90
40255;DHT22;25973;52.368;4.940;2022-10-31T15:11:19;16.20;99.90
40255;DHT22;25973;52.368;4.940;2022-10-31T15:13:46;16.20;99.90
40255;DHT22;25973;52.368;4.940;2022-10-31T15:16:14;16.20;99.90
40255;DHT22;25973;52.368;4.940;2022-10-31T15:18:49;16.20;99.90
40255;DHT22;25973;52.368;4.940;2022-10-31T15:21:16;16.10;99.90
40255;DHT22;25973;52.368;4.940;2022-10-31T15:23:43;16.10;99.90
40255;DHT22;25973;52.368;4.940;2022-10-31T15:26:21;16.10;99.90
40255;DHT22;25973;52.368;4.940;2022-10-31T15:29:11;16.00;99.90
40255;DHT22;25973;52.368;4.940;2022-10-31T15:31:37;16.00;99.90
40255;DHT22;25973;52.368;4.940;2022-10-31T15:34:18;16.00;99.90
40255;DHT22;25973;52.368;4.940;2022-10-31T15:36:48;16.00;99.90
40255;DHT22;25973;52.368;4.940;2022-10-31T15:39:20;16.00;99.90
40255;DHT22;25973;52.368;4.940;2022-10-31T15:41:51;15.90;99.90
40255;DHT22;25973;52.368;4.940;2022-10-31T15:44:28;15.90;99.90
40255;DHT22;25973;52.368;4.940;2022-10-31T15:47:05;15.90;99.90
40255;DHT22;25973;52.368;4.940;2022-10-31T15:51:57;15.80;99.90
40255;DHT22;25973;52.368;4.940;2022-10-31T15:54:28;15.80;99.90
40255;DHT22;25973;52.368;4.940;2022-10-31T15:56:54;15.80;99.90
40255;DHT22;25973;52.368;4.940;2022-10-31T15:59:23;15.70;99.90
40255;DHT22;25973;52.368;4.940;2022-10-31T16:02:02;15.70;99.90
40255;DHT22;25973;52.368;4.940;2022-10-31T16:04:28;15.70;99.90
40255;DHT22;25973;52.368;4.940;2022-10-31T16:07:12;15.60;99.90
40255;DHT22;25973;52.368;4.940;2022-10-31T16:09:58;15.60;99.90
40255;DHT22;25973;52.368;4.940;2022-10-31T16:12:45;15.60;99.90
40255;DHT22;25973;52.368;4.940;2022-10-31T16:15:17;15.60;99.90
40255;DHT22;25973;52.368;4.940;2022-10-31T16:17:46;15.50;99.90
40255;DHT22;25973;52.368;4.940;2022-10-31T16:20:23;15.50;99.90
40255;DHT22;25973;52.368;4.940;2022-10-31T16:22:51;15.60;99.90
40255;DHT22;25973;52.368;4.940;2022-10-31T16:27:49;15.60;99.90
40255;DHT22;25973;52.368;4.940;2022-10-31T16:30:41;15.60;99.90
40255;DHT22;25973;52.368;4.940;2022-10-31T16:33:27;15.60;99.90
40255;DHT22;25973;52.368;4.940;2022-10-31T16:35:55;15.60;99.90
40255;DHT22;25973;52.368;4.940;2022-10-31T16:38:20;15.60;99.90
40255;DHT22;25973;52.368;4.940;2022-10-31T16:40:46;15.60;99.90
40255;DHT22;25973;52.368;4.940;2022-10-31T16:43:17;15.60;99.90
40255;DHT22;25973;52.368;4.940;2022-10-31T16:45:45;15.60;99.90
40255;DHT22;25973;52.368;4.940;2022-10-31T16:48:13;15.60;99.90
40255;DHT22;25973;52.368;4.940;2022-10-31T16:50:41;15.60;99.90
40255;DHT22;25973;52.368;4.940;2022-10-31T16:53:08;15.60;99.90
40255;DHT22;25973;52.368;4.940;2022-10-31T16:55:34;15.60;99.90
40255;DHT22;25973;52.368;4.940;2022-10-31T16:58:01;15.60;99.90
40255;DHT22;25973;52.368;4.940;2022-10-31T17:00:27;15.60;99.90
40255;DHT22;25973;52.368;4.940;2022-10-31T17:02:55;15.60;99.90
40255;DHT22;25973;52.368;4.940;2022-10-31T17:05:22;15.60;99.90
40255;DHT22;25973;52.368;4.940;2022-10-31T17:07:57;15.60;99.90
40255;DHT22;25973;52.368;4.940;2022-10-31T17:10:24;15.60;99.90
40255;DHT22;25973;52.368;4.940;2022-10-31T17:12:50;15.60;99.90
40255;DHT22;25973;52.368;4.940;2022-10-31T17:15:21;15.60;99.90
40255;DHT22;25973;52.368;4.940;2022-10-31T17:17:48;15.60;99.90
40255;DHT22;25973;52.368;4.940;2022-10-31T17:22:44;15.60;99.90
40255;DHT22;25973;52.368;4.940;2022-10-31T17:25:16;15.50;99.90
40255;DHT22;25973;52.368;4.940;2022-10-31T17:27:44;15.60;99.90
40255;DHT22;25973;52.368;4.940;2022-10-31T17:30:12;15.60;99.90
40255;DHT22;25973;52.368;4.940;2022-10-31T17:32:38;15.60;99.90
40255;DHT22;25973;52.368;4.940;2022-10-31T17:35:07;15.70;99.90
40255;DHT22;25973;52.368;4.940;2022-10-31T17:37:33;15.70;99.90
40255;DHT22;25973;52.368;4.940;2022-10-31T17:39:59;15.70;99.90
40255;DHT22;25973;52.368;4.940;2022-10-31T17:42:25;15.70;99.90
40255;DHT22;25973;52.368;4.940;2022-10-31T17:44:50;15.70;99.90
40255;DHT22;25973;52.368;4.940;2022-10-31T17:47:16;15.70;99.90
40255;DHT22;25973;52.368;4.940;2022-10-31T17:49:41;15.70;99.90
40255;DHT22;25973;52.368;4.940;2022-10-31T17:52:07;15.70;99.90
40255;DHT22;25973;52.368;4.940;2022-10-31T17:54:32;15.70;99.90
40255;DHT22;25973;52.368;4.940;2022-10-31T17:56:58;15.70;99.90
40255;DHT22;25973;52.368;4.940;2022-10-31T17:59:23;15.60;99.90
40255;DHT22;25973;52.368;4.940;2022-10-31T18:01:50;15.60;99.90
40255;DHT22;25973;52.368;4.940;2022-10-31T18:04:16;15.60;99.90
40255;DHT22;25973;52.368;4.940;2022-10-31T18:06:41;15.60;99.90
40255;DHT22;25973;52.368;4.940;2022-10-31T18:09:07;15.50;99.90
40255;DHT22;25973;52.368;4.940;2022-10-31T18:11:33;15.50;99.90